createdAt,value
2022-09-12T00:00:50.975Z,81
2022-09-12T00:02:50.831Z,81
2022-09-12T00:04:50.023Z,81
2022-09-12T00:06:50.079Z,81
2022-09-12T00:08:50.097Z,81
2022-09-12T00:10:50.971Z,81
2022-09-12T00:12:50.836Z,81
2022-09-12T00:14:50.904Z,81
2022-09-12T00:16:51.241Z,81
2022-09-12T00:18:50.214Z,81
2022-09-12T00:20:50.119Z,81
2022-09-12T00:22:50.405Z,81
2022-09-12T00:24:50.517Z,81
2022-09-12T00:26:50.252Z,81
2022-09-12T00:28:50.634Z,81
2022-09-12T00:30:50.813Z,81
2022-09-12T00:32:50.825Z,81
2022-09-12T00:34:50.218Z,81
2022-09-12T00:36:50.482Z,81
2022-09-12T00:38:50.782Z,81
2022-09-12T00:40:50.961Z,81
2022-09-12T00:42:50.897Z,81
2022-09-12T00:44:50.925Z,81
2022-09-12T00:46:50.208Z,81
2022-09-12T00:48:50.256Z,81
2022-09-12T00:50:50.203Z,81
2022-09-12T00:52:50.346Z,81
2022-09-12T00:54:50.327Z,81
2022-09-12T00:56:50.839Z,81
2022-09-12T00:58:50.990Z,81
2022-09-12T01:00:50.428Z,81
2022-09-12T01:02:50.595Z,81
2022-09-12T01:04:50.174Z,81
2022-09-12T01:06:50.611Z,81
2022-09-12T01:08:50.739Z,81
2022-09-12T01:10:50.811Z,81
2022-09-12T01:12:50.892Z,81
2022-09-12T01:14:50.685Z,81
2022-09-12T01:16:50.813Z,81
2022-09-12T01:18:50.761Z,81
2022-09-12T01:20:50.694Z,81
2022-09-12T01:22:50.674Z,81
2022-09-12T01:24:50.610Z,81
2022-09-12T01:26:50.835Z,81
2022-09-12T01:28:50.753Z,81
2022-09-12T01:30:50.657Z,81
2022-09-12T01:32:50.700Z,81
2022-09-12T01:34:51.030Z,81
2022-09-12T01:36:50.240Z,81
2022-09-12T01:38:50.055Z,81
2022-09-12T01:40:51.051Z,81
2022-09-12T01:42:50.985Z,81
2022-09-12T01:44:50.812Z,81
2022-09-12T01:46:50.961Z,81
2022-09-12T01:48:50.879Z,81
2022-09-12T01:50:50.934Z,81
2022-09-12T01:52:50.904Z,81
2022-09-12T01:54:50.660Z,81
2022-09-12T01:56:50.791Z,81
2022-09-12T01:58:50.758Z,82
2022-09-12T02:00:51.011Z,81
2022-09-12T02:02:50.876Z,81
2022-09-12T02:04:50.489Z,82
2022-09-12T02:06:50.809Z,82
2022-09-12T02:08:50.303Z,82
2022-09-12T02:10:50.459Z,82
2022-09-12T02:12:50.360Z,82
2022-09-12T02:14:50.509Z,82
2022-09-12T02:16:50.853Z,82
2022-09-12T02:18:50.730Z,82
2022-09-12T02:20:50.739Z,82
2022-09-12T02:22:50.241Z,82
2022-09-12T02:24:50.091Z,82
2022-09-12T02:26:50.436Z,82
2022-09-12T02:28:50.480Z,82
2022-09-12T02:30:50.664Z,82
2022-09-12T02:32:50.441Z,82
2022-09-12T02:34:50.773Z,82
2022-09-12T02:36:50.907Z,82
2022-09-12T02:38:50.820Z,82
2022-09-12T02:40:50.756Z,82
2022-09-12T02:42:50.925Z,82
2022-09-12T02:44:50.761Z,82
2022-09-12T02:46:50.917Z,82
2022-09-12T02:48:50.923Z,82
2022-09-12T02:50:50.673Z,82
2022-09-12T02:52:50.787Z,82
2022-09-12T02:54:50.636Z,82
2022-09-12T02:56:50.931Z,82
2022-09-12T02:58:50.840Z,82
2022-09-12T03:00:51.109Z,82
2022-09-12T03:02:50.100Z,82
2022-09-12T03:04:50.427Z,82
2022-09-12T03:06:50.574Z,82
2022-09-12T03:08:50.459Z,82
2022-09-12T03:10:50.498Z,82
2022-09-12T03:12:50.534Z,82
2022-09-12T03:14:50.321Z,82
2022-09-12T03:16:50.740Z,82
2022-09-12T03:18:50.836Z,82
2022-09-12T03:20:50.715Z,82
2022-09-12T03:22:51.732Z,82
2022-09-12T03:24:50.604Z,82
2022-09-12T03:26:50.958Z,82
2022-09-12T03:28:50.922Z,82
2022-09-12T03:30:51.705Z,82
2022-09-12T03:32:50.537Z,82
2022-09-12T03:34:51.000Z,82
2022-09-12T03:36:50.253Z,82
2022-09-12T03:38:50.189Z,82
2022-09-12T03:40:55.558Z,82
2022-09-12T03:42:50.526Z,82
2022-09-12T03:44:50.496Z,82
2022-09-12T03:46:50.843Z,82
2022-09-12T03:48:50.665Z,82
2022-09-12T03:50:50.720Z,82
2022-09-12T03:52:50.447Z,82
2022-09-12T03:54:50.352Z,82
2022-09-12T03:56:50.787Z,82
2022-09-12T03:58:50.668Z,82
2022-09-12T04:00:50.979Z,82
2022-09-12T04:02:50.928Z,82
2022-09-12T04:04:50.208Z,82
2022-09-12T04:06:50.605Z,83
2022-09-12T04:08:50.612Z,83
2022-09-12T04:10:50.354Z,83
2022-09-12T04:12:50.165Z,83
2022-09-12T04:14:50.138Z,83
2022-09-12T04:16:50.504Z,83
2022-09-12T04:18:50.509Z,83
2022-09-12T04:20:50.421Z,83
2022-09-12T04:22:50.360Z,83
2022-09-12T04:24:50.114Z,83
2022-09-12T04:26:50.156Z,83
2022-09-12T04:28:50.091Z,83
2022-09-12T04:30:50.323Z,83
2022-09-12T04:32:50.401Z,83
2022-09-12T04:34:50.837Z,83
2022-09-12T04:36:50.085Z,83
2022-09-12T04:38:50.960Z,83
2022-09-12T04:40:50.698Z,83
2022-09-12T04:42:50.734Z,83
2022-09-12T04:44:50.601Z,83
2022-09-12T04:46:50.898Z,83
2022-09-12T04:48:57.585Z,83
2022-09-12T04:50:50.384Z,83
2022-09-12T04:52:50.556Z,83
2022-09-12T04:54:50.512Z,83
2022-09-12T04:56:50.737Z,83
2022-09-12T04:58:50.793Z,83
2022-09-12T05:00:50.635Z,83
2022-09-12T05:02:50.699Z,83
2022-09-12T05:04:50.413Z,83
2022-09-12T05:06:50.501Z,83
2022-09-12T05:08:50.464Z,83
2022-09-12T05:10:50.313Z,83
2022-09-12T05:12:50.293Z,83
2022-09-12T05:14:50.140Z,83
2022-09-12T05:16:51.073Z,83
2022-09-12T05:18:50.070Z,83
2022-09-12T05:20:50.883Z,83
2022-09-12T05:22:50.924Z,83
2022-09-12T05:24:51.289Z,83
2022-09-12T05:26:50.429Z,83
2022-09-12T05:28:50.404Z,83
2022-09-12T05:30:50.945Z,83
2022-09-12T05:32:50.119Z,83
2022-09-12T05:34:50.525Z,83
2022-09-12T05:36:50.902Z,83
2022-09-12T05:38:51.012Z,83
2022-09-12T05:40:51.020Z,83
2022-09-12T05:42:50.873Z,83
2022-09-12T05:44:50.569Z,83
2022-09-12T05:46:50.857Z,83
2022-09-12T05:48:57.199Z,83
2022-09-12T05:50:50.977Z,83
2022-09-12T05:52:50.794Z,83
2022-09-12T05:54:50.614Z,83
2022-09-12T05:56:50.728Z,83
2022-09-12T05:58:50.670Z,83
2022-09-12T06:00:50.651Z,83
2022-09-12T06:02:50.492Z,83
2022-09-12T06:04:50.701Z,83
2022-09-12T06:06:50.931Z,83
2022-09-12T06:08:50.743Z,83
2022-09-12T06:10:50.496Z,83
2022-09-12T06:12:50.348Z,83
2022-09-12T06:14:50.689Z,83
2022-09-12T06:16:51.279Z,83
2022-09-12T06:18:50.222Z,83
2022-09-12T06:20:50.168Z,83
2022-09-12T06:22:50.174Z,83
2022-09-12T06:24:58.464Z,84
2022-09-12T06:26:50.544Z,84
2022-09-12T06:28:50.586Z,84
2022-09-12T06:30:50.714Z,84
2022-09-12T06:32:50.042Z,84
2022-09-12T06:34:50.521Z,84
2022-09-12T06:36:50.634Z,84
2022-09-12T06:38:50.593Z,84
2022-09-12T06:40:50.611Z,84
2022-09-12T06:42:50.430Z,84
2022-09-12T06:44:50.290Z,84
2022-09-12T06:46:50.688Z,84
2022-09-12T06:48:50.623Z,84
2022-09-12T06:50:50.644Z,84
2022-09-12T06:52:50.556Z,84
2022-09-12T06:54:50.540Z,84
2022-09-12T06:56:50.802Z,85
2022-09-12T06:58:50.738Z,85
2022-09-12T07:00:50.719Z,85
2022-09-12T07:02:50.542Z,85
2022-09-12T07:04:50.962Z,85
2022-09-12T07:06:50.911Z,85
2022-09-12T07:08:50.828Z,85
2022-09-12T07:10:50.762Z,85
2022-09-12T07:12:50.758Z,84
2022-09-12T07:14:50.591Z,84
2022-09-12T07:16:51.291Z,84
2022-09-12T07:18:50.110Z,84
2022-09-12T07:20:50.936Z,84
2022-09-12T07:22:50.864Z,84
2022-09-12T07:24:50.691Z,84
2022-09-12T07:26:50.568Z,84
2022-09-12T07:28:50.359Z,83
2022-09-12T07:30:50.508Z,83
2022-09-12T07:32:50.266Z,84
2022-09-12T07:34:50.803Z,84
2022-09-12T07:36:50.103Z,84
2022-09-12T07:38:50.308Z,83
2022-09-12T07:40:50.260Z,83
2022-09-12T07:42:50.638Z,83
2022-09-12T07:44:50.509Z,83
2022-09-12T07:46:50.747Z,83
2022-09-12T07:48:50.803Z,83
2022-09-12T07:50:50.917Z,83
2022-09-12T07:52:51.026Z,82
2022-09-12T07:54:50.897Z,82
2022-09-12T07:56:50.278Z,82
2022-09-12T07:58:50.105Z,82
2022-09-12T08:00:50.377Z,82
2022-09-12T08:02:50.260Z,82
2022-09-12T08:04:50.632Z,82
2022-09-12T08:06:50.785Z,82
2022-09-12T08:08:50.578Z,82
2022-09-12T08:10:50.608Z,82
2022-09-12T08:12:50.505Z,82
2022-09-12T08:14:50.535Z,81
2022-09-12T08:16:50.660Z,80
2022-09-12T08:18:50.678Z,81
2022-09-12T08:20:50.790Z,81
2022-09-12T08:22:50.782Z,81
2022-09-12T08:24:50.955Z,81
2022-09-12T08:26:50.388Z,81
2022-09-12T08:28:50.440Z,81
2022-09-12T08:30:50.439Z,81
2022-09-12T08:32:50.485Z,81
2022-09-12T08:34:50.827Z,80
2022-09-12T08:36:51.010Z,80
2022-09-12T08:38:50.903Z,80
2022-09-12T08:40:50.794Z,80
2022-09-12T08:42:50.981Z,80
2022-09-12T08:44:50.981Z,80
2022-09-12T08:46:50.352Z,80
2022-09-12T08:48:50.180Z,80
2022-09-12T08:50:50.714Z,80
2022-09-12T08:52:50.675Z,80
2022-09-12T08:54:50.493Z,81
2022-09-12T08:56:50.687Z,81
2022-09-12T08:58:50.427Z,81
2022-09-12T09:00:50.504Z,80
2022-09-12T09:02:50.936Z,80
2022-09-12T09:04:50.429Z,80
2022-09-12T09:06:50.621Z,80
2022-09-12T09:08:50.489Z,80
2022-09-12T09:10:50.630Z,80
2022-09-12T09:12:50.593Z,80
2022-09-12T09:14:50.681Z,80
2022-09-12T09:16:50.388Z,80
2022-09-12T09:18:50.408Z,80
2022-09-12T09:20:50.317Z,80
2022-09-12T09:22:50.994Z,80
2022-09-12T09:24:50.850Z,80
2022-09-12T09:26:50.033Z,80
2022-09-12T09:28:50.195Z,80
2022-09-12T09:30:50.700Z,78
2022-09-12T09:32:50.772Z,78
2022-09-12T09:34:50.240Z,78
2022-09-12T09:36:50.479Z,78
2022-09-12T09:38:50.399Z,78
2022-09-12T09:40:50.421Z,78
2022-09-12T09:42:50.321Z,78
2022-09-12T09:44:50.348Z,77
2022-09-12T09:46:50.406Z,76
2022-09-12T09:48:50.233Z,76
2022-09-12T09:50:50.246Z,76
2022-09-12T09:52:50.153Z,75
2022-09-12T09:54:50.128Z,75
2022-09-12T09:56:50.146Z,76
2022-09-12T09:58:50.444Z,76
2022-09-12T10:00:57.296Z,76
2022-09-12T10:02:50.536Z,72
2022-09-12T10:04:50.983Z,72
2022-09-12T10:06:50.358Z,71
2022-09-12T10:08:50.556Z,71
2022-09-12T10:10:50.339Z,71
2022-09-12T10:12:50.501Z,71
2022-09-12T10:14:50.487Z,71
2022-09-12T10:16:50.451Z,72
2022-09-12T10:18:50.240Z,72
2022-09-12T10:20:50.044Z,71
2022-09-12T10:22:50.253Z,71
2022-09-12T10:24:50.307Z,71
2022-09-12T10:26:57.534Z,70
2022-09-12T10:28:50.468Z,70
2022-09-12T10:30:50.699Z,70
2022-09-12T10:32:50.669Z,68
2022-09-12T10:34:50.993Z,67
2022-09-12T10:36:50.263Z,67
2022-09-12T10:38:50.332Z,67
2022-09-12T10:40:50.392Z,67
2022-09-12T10:42:50.420Z,66
2022-09-12T10:44:50.453Z,67
2022-09-12T10:46:50.936Z,67
2022-09-12T10:48:50.900Z,66
2022-09-12T10:50:51.061Z,66
2022-09-12T10:52:50.058Z,66
2022-09-12T10:54:51.012Z,67
2022-09-12T10:56:50.199Z,68
2022-09-12T10:58:50.442Z,68
2022-09-12T11:00:50.337Z,67
2022-09-12T11:02:50.533Z,65
2022-09-12T11:04:50.897Z,63
2022-09-12T11:06:50.229Z,63
2022-09-12T11:08:50.235Z,63
2022-09-12T11:10:50.971Z,63
2022-09-12T11:12:50.817Z,63
2022-09-12T11:14:50.707Z,63
2022-09-12T11:16:50.069Z,62
2022-09-12T11:18:50.993Z,62
2022-09-12T11:20:50.799Z,62
2022-09-12T11:22:50.924Z,62
2022-09-12T11:24:50.917Z,63
2022-09-12T11:26:50.397Z,63
2022-09-12T11:28:50.302Z,63
2022-09-12T11:30:50.437Z,63
2022-09-12T11:32:50.535Z,61
2022-09-12T11:34:50.111Z,61
2022-09-12T11:36:50.118Z,61
2022-09-12T11:38:50.111Z,60
2022-09-12T11:40:50.926Z,60
2022-09-12T11:42:50.912Z,61
2022-09-12T11:44:50.754Z,61
2022-09-12T11:46:52.812Z,61
2022-09-12T11:48:50.785Z,61
2022-09-12T11:50:50.742Z,61
2022-09-12T11:52:50.874Z,60
2022-09-12T11:54:54.626Z,60
2022-09-12T11:56:50.763Z,60
2022-09-12T11:58:50.770Z,60
2022-09-12T12:00:50.753Z,60
2022-09-12T12:02:50.975Z,58
2022-09-12T12:04:50.296Z,57
2022-09-12T12:06:50.445Z,57
2022-09-12T12:08:50.323Z,58
2022-09-12T12:10:50.446Z,58
2022-09-12T12:12:50.412Z,56
2022-09-12T12:14:50.230Z,56
2022-09-12T12:16:50.488Z,57
2022-09-12T12:18:50.614Z,56
2022-09-12T12:20:50.441Z,56
2022-09-12T12:22:50.472Z,56
2022-09-12T12:24:50.250Z,56
2022-09-12T12:26:50.381Z,57
2022-09-12T12:28:50.377Z,57
2022-09-12T12:30:50.567Z,56
2022-09-12T12:32:50.802Z,56
2022-09-12T12:34:50.140Z,56
2022-09-12T12:36:50.751Z,57
2022-09-12T12:38:50.522Z,57
2022-09-12T12:40:50.340Z,57
2022-09-12T12:42:50.412Z,57
2022-09-12T12:44:50.228Z,56
2022-09-12T12:46:50.519Z,57
2022-09-12T12:48:50.312Z,58
2022-09-12T12:50:50.535Z,57
2022-09-12T12:52:50.375Z,55
2022-09-12T12:54:50.344Z,55
2022-09-12T12:56:50.670Z,56
2022-09-12T12:58:50.665Z,55
2022-09-12T13:00:50.678Z,55
2022-09-12T13:02:51.059Z,56
2022-09-12T13:04:50.263Z,56
2022-09-12T13:06:50.222Z,56
2022-09-12T13:08:50.321Z,55
2022-09-12T13:10:50.156Z,56
2022-09-12T13:12:50.250Z,56
2022-09-12T13:14:50.051Z,53
2022-09-12T13:16:50.164Z,54
2022-09-12T13:18:50.182Z,53
2022-09-12T13:20:50.894Z,53
2022-09-12T13:22:50.755Z,52
2022-09-12T13:24:50.789Z,54
2022-09-12T13:26:50.824Z,55
2022-09-12T13:28:50.907Z,53
2022-09-12T13:30:51.035Z,53
2022-09-12T13:32:50.061Z,52
2022-09-12T13:34:50.462Z,51
2022-09-12T13:36:50.752Z,53
2022-09-12T13:38:50.648Z,53
2022-09-12T13:40:50.627Z,53
2022-09-12T13:42:50.671Z,53
2022-09-12T13:44:50.405Z,54
2022-09-12T13:46:50.483Z,54
2022-09-12T13:48:50.392Z,54
2022-09-12T13:50:50.464Z,54
2022-09-12T13:52:50.702Z,54
2022-09-12T13:54:50.536Z,52
2022-09-12T13:56:50.729Z,53
2022-09-12T13:58:50.691Z,53
2022-09-12T14:00:50.536Z,52
2022-09-12T14:02:50.938Z,52
2022-09-12T14:04:50.329Z,51
2022-09-12T14:06:50.514Z,52
2022-09-12T14:08:50.512Z,52
2022-09-12T14:10:50.887Z,52
2022-09-12T14:12:50.998Z,54
2022-09-12T14:14:50.908Z,54
2022-09-12T14:16:50.263Z,54
2022-09-12T14:18:50.225Z,54
2022-09-12T14:20:50.148Z,54
2022-09-12T14:22:51.767Z,53
2022-09-12T14:24:50.398Z,53
2022-09-12T14:26:50.312Z,52
2022-09-12T14:28:50.298Z,52
2022-09-12T14:30:51.355Z,52
2022-09-12T14:32:50.961Z,52
2022-09-12T14:34:50.698Z,51
2022-09-12T14:36:50.110Z,51
2022-09-12T14:38:50.865Z,51
2022-09-12T14:40:50.589Z,52
2022-09-12T14:42:50.697Z,52
2022-09-12T14:44:50.439Z,52
2022-09-12T14:46:50.803Z,52
2022-09-12T14:48:50.087Z,52
2022-09-12T14:50:51.001Z,52
2022-09-12T14:52:50.963Z,52
2022-09-12T14:54:50.982Z,52
2022-09-12T14:56:50.332Z,52
2022-09-12T14:58:50.558Z,52
2022-09-12T15:00:50.839Z,52
2022-09-12T15:02:50.494Z,52
2022-09-12T15:04:50.841Z,52
2022-09-12T15:06:50.285Z,52
2022-09-12T15:08:50.635Z,52
2022-09-12T15:10:50.643Z,52
2022-09-12T15:12:50.661Z,52
2022-09-12T15:14:50.444Z,52
2022-09-12T15:16:50.620Z,51
2022-09-12T15:18:50.775Z,51
2022-09-12T15:20:50.600Z,52
2022-09-12T15:22:50.569Z,52
2022-09-12T15:24:50.412Z,54
2022-09-12T15:26:50.939Z,52
2022-09-12T15:28:50.789Z,51
2022-09-12T15:30:50.971Z,51
2022-09-12T15:32:50.398Z,51
2022-09-12T15:34:50.677Z,50
2022-09-12T15:36:50.804Z,51
2022-09-12T15:38:50.557Z,51
2022-09-12T15:40:50.644Z,51
2022-09-12T15:42:50.448Z,51
2022-09-12T15:44:50.616Z,51
2022-09-12T15:46:50.902Z,51
2022-09-12T15:48:50.709Z,51
2022-09-12T15:50:50.477Z,52
2022-09-12T15:52:50.513Z,52
2022-09-12T15:54:50.407Z,51
2022-09-12T15:56:50.333Z,51
2022-09-12T15:59:00.800Z,51
2022-09-12T16:00:50.714Z,51
2022-09-12T16:02:51.202Z,51
2022-09-12T16:04:50.559Z,51
2022-09-12T16:06:50.830Z,51
2022-09-12T16:08:50.779Z,51
2022-09-12T16:10:50.731Z,51
2022-09-12T16:12:50.724Z,51
2022-09-12T16:14:50.569Z,52
2022-09-12T16:16:50.710Z,52
2022-09-12T16:18:50.542Z,52
2022-09-12T16:20:50.485Z,52
2022-09-12T16:22:50.566Z,51
2022-09-12T16:24:50.490Z,52
2022-09-12T16:26:50.990Z,52
2022-09-12T16:28:50.182Z,53
2022-09-12T16:30:51.388Z,53
2022-09-12T16:32:50.413Z,53
2022-09-12T16:34:50.062Z,53
2022-09-12T16:36:50.134Z,52
2022-09-12T16:38:50.207Z,52
2022-09-12T16:40:51.041Z,53
2022-09-12T16:42:50.966Z,53
2022-09-12T16:44:50.938Z,54
2022-09-12T16:46:50.652Z,54
2022-09-12T16:48:54.071Z,54
2022-09-12T16:50:50.780Z,55
2022-09-12T16:52:50.581Z,55
2022-09-12T16:54:50.614Z,56
2022-09-12T16:56:50.839Z,56
2022-09-12T16:58:51.657Z,56
2022-09-12T17:00:50.591Z,56
2022-09-12T17:02:50.770Z,56
2022-09-12T17:04:50.195Z,57
2022-09-12T17:06:50.276Z,57
2022-09-12T17:08:50.468Z,57
2022-09-12T17:10:50.404Z,57
2022-09-12T17:12:50.348Z,57
2022-09-12T17:14:50.373Z,58
2022-09-12T17:16:52.713Z,58
2022-09-12T17:18:50.609Z,58
2022-09-12T17:20:50.506Z,58
2022-09-12T17:22:50.199Z,58
2022-09-12T17:24:50.079Z,58
2022-09-12T17:26:50.167Z,58
2022-09-12T17:28:50.939Z,58
2022-09-12T17:30:50.446Z,59
2022-09-12T17:32:50.189Z,59
2022-09-12T17:34:50.468Z,59
2022-09-12T17:36:50.480Z,59
2022-09-12T17:38:50.603Z,59
2022-09-12T17:41:00.750Z,59
2022-09-12T17:42:50.508Z,59
2022-09-12T17:44:50.356Z,59
2022-09-12T17:46:50.939Z,59
2022-09-12T17:48:50.063Z,60
2022-09-12T17:50:50.925Z,60
2022-09-12T17:52:50.711Z,60
2022-09-12T17:54:50.666Z,60
2022-09-12T17:56:50.848Z,60
2022-09-12T17:58:50.825Z,60
2022-09-12T18:00:50.548Z,60
2022-09-12T18:02:50.809Z,61
2022-09-12T18:04:50.092Z,61
2022-09-12T18:06:50.315Z,62
2022-09-12T18:08:50.372Z,63
2022-09-12T18:10:51.202Z,64
2022-09-12T18:12:50.117Z,64
2022-09-12T18:14:50.104Z,64
2022-09-12T18:16:50.194Z,64
2022-09-12T18:18:50.253Z,64
2022-09-12T18:20:50.280Z,65
2022-09-12T18:22:50.436Z,65
2022-09-12T18:24:50.047Z,65
2022-09-12T18:26:51.020Z,66
2022-09-12T18:28:51.052Z,66
2022-09-12T18:30:51.152Z,67
2022-09-12T18:32:50.162Z,67
2022-09-12T18:34:50.677Z,67
2022-09-12T18:36:50.914Z,67
2022-09-12T18:38:50.863Z,67
2022-09-12T18:40:50.831Z,67
2022-09-12T18:42:50.848Z,67
2022-09-12T18:44:50.627Z,66
2022-09-12T18:46:51.497Z,67
2022-09-12T18:48:50.398Z,68
2022-09-12T18:50:50.374Z,68
2022-09-12T18:52:50.264Z,68
2022-09-12T18:54:50.885Z,68
2022-09-12T18:56:50.865Z,69
2022-09-12T18:58:50.942Z,69
2022-09-12T19:00:51.086Z,70
2022-09-12T19:02:50.757Z,70
2022-09-12T19:04:51.013Z,70
2022-09-12T19:06:51.096Z,69
2022-09-12T19:08:50.024Z,68
2022-09-12T19:10:50.941Z,69
2022-09-12T19:12:50.820Z,69
2022-09-12T19:14:50.860Z,69
2022-09-12T19:16:50.066Z,69
2022-09-12T19:18:51.166Z,69
2022-09-12T19:20:50.070Z,69
2022-09-12T19:22:51.014Z,69
2022-09-12T19:24:50.486Z,69
2022-09-12T19:26:50.791Z,70
2022-09-12T19:28:50.770Z,70
2022-09-12T19:30:50.942Z,70
2022-09-12T19:32:50.802Z,70
2022-09-12T19:34:50.046Z,71
2022-09-12T19:36:50.150Z,73
2022-09-12T19:38:50.140Z,73
2022-09-12T19:40:51.011Z,73
2022-09-12T19:42:50.157Z,73
2022-09-12T19:44:51.009Z,73
2022-09-12T19:46:50.949Z,74
2022-09-12T19:48:50.847Z,74
2022-09-12T19:50:50.849Z,73
2022-09-12T19:52:50.624Z,73
2022-09-12T19:54:50.628Z,72
2022-09-12T19:56:50.845Z,72
2022-09-12T19:58:57.655Z,72
2022-09-12T20:00:50.539Z,72
2022-09-12T20:02:50.386Z,72
2022-09-12T20:04:50.858Z,71
2022-09-12T20:06:50.140Z,71
2022-09-12T20:08:50.456Z,72
2022-09-12T20:10:57.620Z,72
2022-09-12T20:12:50.551Z,72
2022-09-12T20:14:50.356Z,72
2022-09-12T20:16:50.467Z,72
2022-09-12T20:18:50.937Z,72
2022-09-12T20:20:50.737Z,73
2022-09-12T20:22:50.683Z,73
2022-09-12T20:24:50.615Z,73
2022-09-12T20:26:50.910Z,73
2022-09-12T20:28:51.055Z,73
2022-09-12T20:30:51.055Z,73
2022-09-12T20:32:50.876Z,73
2022-09-12T20:34:50.319Z,73
2022-09-12T20:36:50.460Z,73
2022-09-12T20:38:50.605Z,73
2022-09-12T20:40:50.520Z,73
2022-09-12T20:42:50.568Z,73
2022-09-12T20:44:50.300Z,73
2022-09-12T20:46:50.735Z,73
2022-09-12T20:48:50.793Z,73
2022-09-12T20:50:50.678Z,73
2022-09-12T20:52:50.821Z,73
2022-09-12T20:54:50.653Z,73
2022-09-12T20:56:50.939Z,73
2022-09-12T20:58:50.954Z,73
2022-09-12T21:00:50.789Z,73
2022-09-12T21:02:51.228Z,73
2022-09-12T21:04:50.697Z,73
2022-09-12T21:06:50.860Z,74
2022-09-12T21:08:50.874Z,74
2022-09-12T21:10:50.852Z,74
2022-09-12T21:12:50.751Z,74
2022-09-12T21:14:50.505Z,74
2022-09-12T21:16:50.600Z,76
2022-09-12T21:18:50.871Z,76
2022-09-12T21:20:50.647Z,75
2022-09-12T21:22:50.595Z,75
2022-09-12T21:24:50.502Z,75
2022-09-12T21:26:50.830Z,75
2022-09-12T21:28:50.817Z,75
2022-09-12T21:30:51.255Z,75
2022-09-12T21:32:50.255Z,75
2022-09-12T21:34:50.713Z,75
2022-09-12T21:36:50.216Z,75
2022-09-12T21:38:50.175Z,75
2022-09-12T21:40:50.163Z,75
2022-09-12T21:42:50.967Z,75
2022-09-12T21:44:50.793Z,75
2022-09-12T21:46:51.302Z,75
2022-09-12T21:48:50.040Z,75
2022-09-12T21:50:50.887Z,75
2022-09-12T21:52:50.760Z,75
2022-09-12T21:54:50.769Z,75
2022-09-12T21:56:50.123Z,75
2022-09-12T21:58:50.950Z,75
2022-09-12T22:00:51.489Z,76
2022-09-12T22:02:50.599Z,76
2022-09-12T22:04:50.956Z,76
2022-09-12T22:06:50.157Z,77
2022-09-12T22:08:51.012Z,76
2022-09-12T22:10:50.949Z,78
2022-09-12T22:12:50.809Z,78
2022-09-12T22:14:50.911Z,79
2022-09-12T22:16:51.002Z,80
2022-09-12T22:18:50.922Z,81
2022-09-12T22:20:50.974Z,81
2022-09-12T22:22:50.898Z,80
2022-09-12T22:24:50.737Z,80
2022-09-12T22:26:50.881Z,79
2022-09-12T22:28:50.820Z,79
2022-09-12T22:30:50.767Z,79
2022-09-12T22:32:50.376Z,79
2022-09-12T22:34:50.837Z,79
2022-09-12T22:36:50.964Z,79
2022-09-12T22:38:50.274Z,79
2022-09-12T22:40:50.505Z,79
2022-09-12T22:42:50.466Z,79
2022-09-12T22:44:50.252Z,79
2022-09-12T22:46:50.736Z,79
2022-09-12T22:48:50.676Z,79
2022-09-12T22:50:50.426Z,78
2022-09-12T22:52:50.373Z,78
2022-09-12T22:54:50.263Z,78
2022-09-12T22:56:50.417Z,78
2022-09-12T22:58:50.369Z,78
2022-09-12T23:00:50.480Z,79
2022-09-12T23:02:50.325Z,79
2022-09-12T23:04:50.761Z,79
2022-09-12T23:06:50.906Z,79
2022-09-12T23:08:50.884Z,79
2022-09-12T23:10:50.667Z,81
2022-09-12T23:12:50.631Z,81
2022-09-12T23:14:50.528Z,82
2022-09-12T23:16:50.725Z,82
2022-09-12T23:18:50.653Z,82
2022-09-12T23:20:50.304Z,82
2022-09-12T23:22:50.137Z,83
2022-09-12T23:24:50.203Z,83
2022-09-12T23:26:50.540Z,83
2022-09-12T23:28:50.762Z,82
2022-09-12T23:30:50.841Z,83
2022-09-12T23:32:50.025Z,83
2022-09-12T23:34:50.503Z,83
2022-09-12T23:36:50.656Z,83
2022-09-12T23:38:50.706Z,82
2022-09-12T23:40:50.624Z,82
2022-09-12T23:42:50.941Z,82
2022-09-12T23:44:51.017Z,82
2022-09-12T23:46:50.381Z,82
2022-09-12T23:48:50.695Z,82
2022-09-12T23:50:50.803Z,82
2022-09-12T23:52:50.862Z,81
2022-09-12T23:54:50.863Z,81
2022-09-12T23:56:50.210Z,81
2022-09-12T23:58:50.292Z,81
